Time;durP1;ratioP1;P1;durP2;ratioP2;P2;SDS_P1;SDS_P2;PMS_P1;PMS_P2;Temp;Humidity;BMP_temperature;BMP_pressure;BME280_temperature;BME280_humidity;BME280_pressure;Samples;Min_cycle;Max_cycle;Signal;HPM_P1;HPM_P2
2021/01/07 00:01:20;;;;;;;12.27;6.82;;;1.30;82.20;;;;;;4960584;28;20027;-92
2021/01/07 00:03:46;;;;;;;11.57;6.55;;;1.30;82.20;;;;;;4978813;28;20039;-83
2021/01/07 00:06:12;;;;;;;13.93;6.70;;;1.20;82.20;;;;;;4978340;28;20380;-91
2021/01/07 00:08:38;;;;;;;9.00;5.95;;;1.20;82.20;;;;;;4977342;28;20054;-89
2021/01/07 00:11:08;;;;;;;11.00;6.32;;;1.20;82.20;;;;;;4977411;28;20098;-83
2021/01/07 00:13:35;;;;;;;9.57;6.53;;;1.20;82.40;;;;;;4977105;28;20491;-89
2021/01/07 00:16:01;;;;;;;12.32;6.10;;;1.30;82.50;;;;;;4975936;28;20030;-85
2021/01/07 00:18:27;;;;;;;9.18;5.78;;;1.30;82.40;;;;;;4975449;28;20027;-82
2021/01/07 00:20:52;;;;;;;8.75;6.05;;;1.30;82.40;;;;;;4975166;28;20104;-81
2021/01/07 00:23:18;;;;;;;9.45;6.03;;;1.30;82.50;;;;;;4971867;28;564442;-81
2021/01/07 00:25:52;;;;;;;11.07;6.88;;;1.30;82.50;;;;;;4995476;28;20058;-83
2021/01/07 00:28:19;;;;;;;11.07;6.43;;;1.30;82.50;;;;;;4995825;28;20521;-87
2021/01/07 00:30:45;;;;;;;11.50;7.00;;;1.30;82.30;;;;;;4995504;28;20667;-85
2021/01/07 00:33:13;;;;;;;12.00;7.55;;;1.30;82.40;;;;;;4994407;28;20036;-80
2021/01/07 00:35:39;;;;;;;11.70;6.00;;;1.20;82.40;;;;;;4995364;28;20050;-86
2021/01/07 00:38:05;;;;;;;10.65;6.15;;;1.20;82.60;;;;;;4995813;28;20022;-86
2021/01/07 00:40:34;;;;;;;9.98;6.07;;;1.20;82.80;;;;;;4996090;28;20018;-84
2021/01/07 00:43:01;;;;;;;8.85;6.03;;;1.20;82.80;;;;;;4978733;28;20089;-87
2021/01/07 00:45:27;;;;;;;10.57;5.72;;;1.20;82.80;;;;;;4978878;28;20026;-80
2021/01/07 00:47:53;;;;;;;9.35;5.57;;;1.20;82.90;;;;;;4978562;28;20054;-84
2021/01/07 00:50:18;;;;;;;9.27;6.10;;;1.20;82.90;;;;;;4978240;28;20037;-83
2021/01/07 00:52:44;;;;;;;12.65;6.88;;;1.20;82.90;;;;;;4995278;28;20146;-78
2021/01/07 00:55:11;;;;;;;12.23;5.97;;;1.30;83.10;;;;;;4993558;28;20093;-78
2021/01/07 00:57:37;;;;;;;11.00;6.45;;;1.20;83.00;;;;;;4994675;28;20030;-77
2021/01/07 01:00:08;;;;;;;12.52;6.68;;;1.20;83.00;;;;;;4977366;28;20137;-81
2021/01/07 01:02:34;;;;;;;13.32;7.28;;;1.30;83.20;;;;;;4993933;28;20121;-79
2021/01/07 01:05:00;;;;;;;10.60;6.55;;;1.20;83.20;;;;;;4997438;28;20053;-77
2021/01/07 01:07:26;;;;;;;8.80;5.78;;;1.20;83.10;;;;;;4981748;28;20085;-78
2021/01/07 01:09:52;;;;;;;10.52;6.35;;;1.30;83.10;;;;;;4997734;28;20014;-77
2021/01/07 01:12:18;;;;;;;10.00;6.05;;;1.20;82.90;;;;;;4995086;28;20018;-79
2021/01/07 01:14:44;;;;;;;9.02;5.85;;;1.20;83.00;;;;;;4995671;28;20069;-78
2021/01/07 01:17:10;;;;;;;12.50;5.75;;;1.20;83.20;;;;;;4993113;28;20042;-76
2021/01/07 01:19:35;;;;;;;9.38;5.40;;;1.20;83.30;;;;;;4994274;28;20108;-77
2021/01/07 01:22:01;;;;;;;11.27;5.55;;;1.20;83.30;;;;;;4993933;28;20052;-77
2021/01/07 01:24:26;;;;;;;9.07;5.43;;;1.30;83.40;;;;;;4994326;28;20034;-83
2021/01/07 01:27:03;;;;;;;8.10;5.18;;;1.30;83.40;;;;;;4994037;28;20065;-76
2021/01/07 01:29:28;;;;;;;10.48;6.43;;;1.30;83.30;;;;;;4992847;28;20022;-76
2021/01/07 01:31:54;;;;;;;9.70;5.47;;;1.30;83.30;;;;;;4994093;28;20026;-78
2021/01/07 01:34:21;;;;;;;10.95;6.00;;;1.30;83.30;;;;;;4976573;28;20037;-77
2021/01/07 01:36:47;;;;;;;9.48;6.30;;;1.30;83.30;;;;;;4994007;28;20072;-80
2021/01/07 01:39:14;;;;;;;8.68;6.00;;;1.30;83.30;;;;;;4993943;28;20027;-77
2021/01/07 01:41:41;;;;;;;9.82;6.72;;;1.30;83.30;;;;;;4994019;28;20026;-78
2021/01/07 01:44:08;;;;;;;10.10;5.78;;;1.30;83.20;;;;;;4993745;28;20050;-77
2021/01/07 01:46:34;;;;;;;8.15;5.22;;;1.20;83.00;;;;;;4992898;28;20452;-80
2021/01/07 01:49:00;;;;;;;7.38;5.03;;;1.20;83.10;;;;;;4994020;28;20026;-79
2021/01/07 01:51:27;;;;;;;7.25;5.00;;;1.20;83.20;;;;;;4993882;28;20069;-77
2021/01/07 01:53:53;;;;;;;8.65;5.35;;;1.20;83.20;;;;;;4976853;28;20031;-79
2021/01/07 01:56:20;;;;;;;10.02;5.75;;;1.20;83.30;;;;;;4993766;28;20105;-79
2021/01/07 01:58:46;;;;;;;7.40;5.22;;;1.20;83.30;;;;;;4992816;28;20031;-77
2021/01/07 02:01:11;;;;;;;8.27;5.25;;;1.30;83.40;;;;;;4993809;28;20018;-77
2021/01/07 02:03:40;;;;;;;6.93;4.68;;;1.30;83.10;;;;;;4993627;28;20039;-77
2021/01/07 02:06:11;;;;;;;6.90;4.72;;;1.30;83.00;;;;;;4993558;28;20062;-77
2021/01/07 02:08:37;;;;;;;6.85;4.13;;;1.30;82.90;;;;;;4995375;28;20034;-83
2021/01/07 02:11:03;;;;;;;9.63;5.20;;;1.30;82.90;;;;;;4995616;28;20022;-78
2021/01/07 02:13:29;;;;;;;7.82;4.95;;;1.20;82.30;;;;;;4997121;28;20025;-85
2021/01/07 02:15:55;;;;;;;10.35;5.55;;;1.10;82.50;;;;;;4994751;28;20062;-79
2021/01/07 02:18:20;;;;;;;10.63;5.97;;;1.20;82.70;;;;;;4994122;28;20022;-84
2021/01/07 02:20:46;;;;;;;9.07;5.30;;;1.10;82.80;;;;;;4994397;28;20027;-83
2021/01/07 02:23:13;;;;;;;10.63;5.80;;;1.20;82.90;;;;;;4993948;28;20049;-78
2021/01/07 02:25:38;;;;;;;8.95;5.40;;;1.20;82.90;;;;;;4993779;28;20029;-76
2021/01/07 02:28:05;;;;;;;7.55;4.32;;;1.20;82.80;;;;;;4993823;28;20030;-86
2021/01/07 02:30:30;;;;;;;9.70;5.20;;;1.20;82.70;;;;;;4996167;28;20395;-80
2021/01/07 02:32:56;;;;;;;10.93;5.88;;;1.30;82.90;;;;;;4997413;28;20085;-80
2021/01/07 02:35:21;;;;;;;10.32;6.25;;;1.20;82.80;;;;;;4997418;28;20030;-77
2021/01/07 02:37:47;;;;;;;11.88;6.65;;;1.20;82.90;;;;;;4998033;28;20081;-82
2021/01/07 02:40:14;;;;;;;8.57;5.10;;;1.20;83.00;;;;;;4997690;28;20026;-82
2021/01/07 02:42:39;;;;;;;8.35;5.25;;;1.30;82.90;;;;;;4997361;28;20026;-79
2021/01/07 02:45:08;;;;;;;9.88;5.30;;;1.20;82.90;;;;;;4995957;28;20033;-78
2021/01/07 02:47:34;;;;;;;13.80;7.43;;;1.20;82.90;;;;;;4999168;28;20109;-82
2021/01/07 02:50:00;;;;;;;11.88;6.35;;;1.20;83.00;;;;;;4997659;28;20053;-79
2021/01/07 02:52:26;;;;;;;14.52;6.88;;;1.10;83.30;;;;;;4997180;28;20057;-78
2021/01/07 02:54:51;;;;;;;10.93;6.38;;;1.10;83.60;;;;;;4997402;28;20031;-78
2021/01/07 02:57:17;;;;;;;8.30;5.22;;;1.10;83.70;;;;;;4995545;28;20076;-78
2021/01/07 02:59:42;;;;;;;8.73;5.65;;;1.10;83.50;;;;;;4997253;28;20069;-77
2021/01/07 03:02:08;;;;;;;10.38;5.53;;;1.10;83.50;;;;;;4997434;28;20542;-80
2021/01/07 03:04:33;;;;;;;8.40;5.60;;;1.10;83.60;;;;;;4996935;28;20034;-79
2021/01/07 03:06:59;;;;;;;7.00;5.15;;;1.10;83.40;;;;;;4979520;28;20026;-77
2021/01/07 03:09:24;;;;;;;8.48;5.53;;;1.10;83.40;;;;;;5000697;28;20030;-77
2021/01/07 03:11:50;;;;;;;5.65;4.07;;;1.10;83.30;;;;;;5010123;28;20076;-78
2021/01/07 03:14:15;;;;;;;7.07;4.50;;;1.10;83.20;;;;;;5014390;28;20022;-77
2021/01/07 03:16:41;;;;;;;6.82;4.03;;;1.10;83.20;;;;;;5015573;28;20053;-77
2021/01/07 03:19:06;;;;;;;8.65;4.65;;;1.20;83.20;;;;;;5010094;28;20027;-79
2021/01/07 03:21:32;;;;;;;6.40;4.43;;;1.20;83.10;;;;;;4998282;28;20030;-80
2021/01/07 03:23:57;;;;;;;7.25;4.40;;;1.20;83.10;;;;;;4997370;28;20038;-80
2021/01/07 03:26:23;;;;;;;8.43;4.65;;;1.20;83.00;;;;;;4997153;28;20030;-82
2021/01/07 03:28:49;;;;;;;7.95;4.72;;;1.20;82.90;;;;;;4996798;28;20030;-80
2021/01/07 03:31:14;;;;;;;8.10;4.75;;;1.20;82.70;;;;;;4996780;28;20380;-77
2021/01/07 03:33:40;;;;;;;8.68;4.63;;;1.10;82.50;;;;;;4996798;28;20052;-82
2021/01/07 03:36:05;;;;;;;7.22;3.92;;;1.10;82.60;;;;;;4997207;28;20018;-79
2021/01/07 03:38:31;;;;;;;6.68;4.10;;;1.20;82.80;;;;;;4997741;28;20054;-81
2021/01/07 03:40:56;;;;;;;9.60;4.93;;;1.20;82.80;;;;;;4998159;28;20146;-78
2021/01/07 03:43:22;;;;;;;10.80;4.78;;;1.20;82.80;;;;;;4997640;28;20049;-83
2021/01/07 03:45:48;;;;;;;9.85;4.93;;;1.20;82.70;;;;;;4996302;28;20018;-80
2021/01/07 03:48:14;;;;;;;7.90;5.13;;;1.20;82.70;;;;;;4996308;28;20030;-83
2021/01/07 03:50:39;;;;;;;8.23;4.55;;;1.20;82.80;;;;;;4996052;28;20101;-84
2021/01/07 03:53:06;;;;;;;8.00;4.18;;;1.20;82.80;;;;;;4995964;28;20022;-80
2021/01/07 03:55:31;;;;;;;10.13;5.78;;;1.30;82.90;;;;;;4995987;28;20037;-82
2021/01/07 03:57:57;;;;;;;10.48;5.55;;;1.20;82.70;;;;;;4996167;28;20034;-84
2021/01/07 04:00:23;;;;;;;8.63;4.88;;;1.30;82.90;;;;;;4996159;28;20030;-85
2021/01/07 04:02:48;;;;;;;7.57;4.32;;;1.30;82.80;;;;;;4995960;28;20030;-78
2021/01/07 04:05:14;;;;;;;6.68;4.18;;;1.20;82.60;;;;;;4995730;28;20057;-83
2021/01/07 04:07:39;;;;;;;6.60;4.22;;;1.20;82.40;;;;;;4995574;28;20031;-78
2021/01/07 04:10:07;;;;;;;5.85;3.83;;;1.20;82.40;;;;;;4994469;28;20061;-79
2021/01/07 04:12:36;;;;;;;5.80;3.85;;;1.20;82.40;;;;;;4994890;28;20113;-85
2021/01/07 04:15:06;;;;;;;8.52;4.07;;;1.20;82.40;;;;;;4996721;28;20029;-83
2021/01/07 04:17:31;;;;;;;7.93;3.83;;;1.20;82.40;;;;;;4996433;28;20026;-87
2021/01/07 04:19:57;;;;;;;6.03;3.88;;;1.20;82.60;;;;;;4996295;28;20026;-88
2021/01/07 04:22:23;;;;;;;6.82;4.40;;;1.20;82.60;;;;;;4995962;28;20053;-87
2021/01/07 04:24:48;;;;;;;6.32;4.13;;;1.20;82.50;;;;;;4995813;28;20502;-86
2021/01/07 04:27:14;;;;;;;7.70;4.47;;;1.20;82.40;;;;;;4994547;28;20023;-86
2021/01/07 04:29:40;;;;;;;9.13;4.30;;;1.20;82.40;;;;;;4996054;28;20054;-86
2021/01/07 04:32:05;;;;;;;9.63;4.82;;;1.20;82.50;;;;;;4996751;28;20479;-88
2021/01/07 04:34:31;;;;;;;7.90;4.45;;;1.20;82.50;;;;;;4995898;28;20026;-87
2021/01/07 04:36:56;;;;;;;6.28;4.18;;;1.10;82.60;;;;;;4995537;28;20022;-85
2021/01/07 04:39:22;;;;;;;7.10;4.25;;;1.20;82.70;;;;;;4995961;28;20553;-89
2021/01/07 04:41:47;;;;;;;11.88;5.25;;;1.20;82.70;;;;;;4995917;28;20022;-90
2021/01/07 04:44:13;;;;;;;7.45;4.75;;;1.20;82.70;;;;;;4995968;28;20506;-88
2021/01/07 04:46:39;;;;;;;8.70;4.45;;;1.20;82.70;;;;;;4978657;28;20030;-89
2021/01/07 04:49:05;;;;;;;8.75;5.18;;;1.20;82.70;;;;;;4996015;28;20035;-85
2021/01/07 04:51:30;;;;;;;11.10;4.95;;;1.20;82.70;;;;;;5000431;28;20030;-84
2021/01/07 04:53:57;;;;;;;12.02;5.93;;;1.20;82.80;;;;;;5007405;28;20023;-79
2021/01/07 04:56:22;;;;;;;9.27;5.75;;;1.20;82.80;;;;;;5008474;28;20023;-79
2021/01/07 04:58:48;;;;;;;17.73;8.55;;;1.20;82.80;;;;;;5000119;28;20479;-77
2021/01/07 05:01:14;;;;;;;25.80;11.85;;;1.20;82.80;;;;;;5003479;28;20101;-79
2021/01/07 05:03:44;;;;;;;46.42;19.02;;;1.20;82.70;;;;;;5003392;28;20030;-78
2021/01/07 05:06:09;;;;;;;39.78;17.40;;;1.20;82.70;;;;;;5004984;28;20030;-78
2021/01/07 05:08:35;;;;;;;34.72;14.43;;;1.20;82.70;;;;;;5001797;28;20022;-78
2021/01/07 05:11:00;;;;;;;25.58;11.68;;;1.20;82.70;;;;;;4995451;28;20023;-77
2021/01/07 05:13:26;;;;;;;22.85;10.45;;;1.20;82.70;;;;;;4994624;28;20026;-76
2021/01/07 05:15:52;;;;;;;22.55;10.88;;;1.20;83.60;;;;;;4994458;28;20026;-77
2021/01/07 05:18:17;;;;;;;13.27;7.15;;;1.20;82.80;;;;;;4994448;28;20068;-83
2021/01/07 05:20:43;;;;;;;10.68;6.65;;;1.20;82.70;;;;;;4993158;28;20089;-79
2021/01/07 05:23:10;;;;;;;10.15;5.55;;;1.20;82.60;;;;;;4994991;28;20200;-76
2021/01/07 05:25:41;;;;;;;10.25;5.80;;;1.20;82.50;;;;;;4994564;28;20023;-84
2021/01/07 05:28:07;;;;;;;10.32;6.10;;;1.20;82.50;;;;;;4994192;28;20383;-76
2021/01/07 05:30:34;;;;;;;8.10;5.40;;;1.20;82.60;;;;;;4994261;28;20029;-80
2021/01/07 05:33:02;;;;;;;10.40;6.07;;;1.20;82.60;;;;;;4994322;28;20030;-84
2021/01/07 05:35:28;;;;;;;11.05;6.13;;;1.20;82.50;;;;;;4994161;28;20109;-78
2021/01/07 05:37:54;;;;;;;14.90;7.45;;;1.20;82.40;;;;;;4994140;28;20030;-77
2021/01/07 05:40:23;;;;;;;12.73;8.07;;;1.20;81.70;;;;;;4994209;28;20072;-77
2021/01/07 05:42:49;;;;;;;14.38;7.97;;;1.20;82.50;;;;;;4994129;28;20045;-78
2021/01/07 05:45:17;;;;;;;17.52;9.48;;;1.20;82.60;;;;;;4994281;28;20050;-79
2021/01/07 05:47:49;;;;;;;14.40;7.50;;;1.20;82.60;;;;;;4993863;28;20081;-77
2021/01/07 05:50:17;;;;;;;13.35;7.30;;;1.30;82.50;;;;;;4993853;28;20037;-79
2021/01/07 05:52:45;;;;;;;14.52;6.70;;;1.30;82.70;;;;;;4994080;28;20029;-80
2021/01/07 05:55:12;;;;;;;13.10;5.97;;;1.20;82.50;;;;;;4994321;28;20383;-81
2021/01/07 05:57:39;;;;;;;12.95;7.05;;;1.20;82.50;;;;;;4993682;28;20033;-83
2021/01/07 06:00:12;;;;;;;11.65;6.22;;;1.10;82.60;;;;;;4994170;28;20026;-83
2021/01/07 06:02:40;;;;;;;16.90;7.82;;;1.10;83.00;;;;;;4994280;28;20018;-80
2021/01/07 06:05:16;;;;;;;9.75;6.22;;;1.10;83.00;;;;;;4995339;28;20038;-78
2021/01/07 06:07:42;;;;;;;12.77;6.45;;;1.10;83.10;;;;;;4997944;28;20054;-84
2021/01/07 06:10:10;;;;;;;13.90;6.80;;;1.10;83.00;;;;;;4997983;28;20112;-78
2021/01/07 06:12:37;;;;;;;10.05;6.30;;;1.20;83.10;;;;;;4998380;28;20092;-82
2021/01/07 06:15:10;;;;;;;13.90;7.03;;;1.20;83.00;;;;;;4998446;28;20022;-77
2021/01/07 06:17:37;;;;;;;10.27;5.65;;;1.20;82.80;;;;;;5000298;28;20074;-80
2021/01/07 06:20:11;;;;;;;12.98;6.88;;;1.20;82.60;;;;;;4998742;28;20019;-75
2021/01/07 06:22:39;;;;;;;10.95;5.93;;;1.20;82.50;;;;;;4997666;28;20050;-79
2021/01/07 06:25:11;;;;;;;12.82;6.28;;;1.20;82.50;;;;;;4998004;28;20037;-80
2021/01/07 06:27:40;;;;;;;11.00;6.63;;;1.20;82.40;;;;;;4997711;28;20050;-83
2021/01/07 06:30:05;;;;;;;12.65;6.75;;;1.10;82.50;;;;;;4998406;28;20030;-81
2021/01/07 06:32:31;;;;;;;10.75;6.60;;;1.10;82.60;;;;;;4996817;28;20501;-75
2021/01/07 06:34:57;;;;;;;14.40;7.18;;;1.10;82.80;;;;;;4997832;28;20026;-75
2021/01/07 06:37:46;;;;;;;12.07;7.38;;;1.10;82.80;;;;;;4998089;28;20038;-75
2021/01/07 06:40:13;;;;;;;13.82;7.35;;;1.10;82.90;;;;;;5001043;28;20018;-76
2021/01/07 06:42:41;;;;;;;10.57;7.13;;;1.10;83.00;;;;;;5006604;28;20060;-75
2021/01/07 06:45:08;;;;;;;15.15;6.80;;;1.10;83.00;;;;;;5007013;28;20113;-77
2021/01/07 06:47:35;;;;;;;11.27;6.63;;;1.10;82.90;;;;;;5001429;28;20030;-77
2021/01/07 06:50:01;;;;;;;15.07;6.70;;;1.10;82.90;;;;;;5005033;28;20030;-79
2021/01/07 06:52:37;;;;;;;9.43;5.53;;;1.10;82.30;;;;;;5000765;28;20061;-76
2021/01/07 06:55:04;;;;;;;12.40;6.47;;;1.10;82.90;;;;;;4997442;28;20030;-76
2021/01/07 06:57:43;;;;;;;11.90;7.18;;;1.10;82.60;;;;;;4997094;28;20575;-77
2021/01/07 07:00:10;;;;;;;14.73;7.25;;;1.10;82.60;;;;;;4996594;28;20046;-76
2021/01/07 07:02:36;;;;;;;10.35;7.10;;;1.10;82.70;;;;;;4996286;28;20026;-76
2021/01/07 07:05:03;;;;;;;13.25;7.70;;;1.10;82.60;;;;;;4996753;28;20088;-77
2021/01/07 07:07:37;;;;;;;11.45;7.15;;;1.10;82.50;;;;;;4996723;28;20026;-75
2021/01/07 07:10:18;;;;;;;13.77;7.50;;;1.10;82.50;;;;;;4996144;28;20033;-76
2021/01/07 07:12:48;;;;;;;10.30;5.95;;;1.10;82.50;;;;;;4996317;28;20026;-76
2021/01/07 07:15:16;;;;;;;13.30;8.40;;;1.10;82.50;;;;;;4979232;28;20352;-81
2021/01/07 07:17:46;;;;;;;13.50;8.10;;;1.10;82.80;;;;;;4996399;28;20019;-76
2021/01/07 07:20:18;;;;;;;15.23;7.85;;;1.10;82.70;;;;;;4997220;28;20033;-75
2021/01/07 07:22:44;;;;;;;15.05;8.13;;;1.20;82.50;;;;;;4996940;28;20042;-79
2021/01/07 07:25:12;;;;;;;16.98;9.02;;;1.20;82.50;;;;;;4996121;28;20467;-76
2021/01/07 07:27:56;;;;;;;15.45;8.73;;;1.20;82.50;;;;;;4996219;28;20390;-76
2021/01/07 07:30:26;;;;;;;13.85;6.88;;;1.20;82.30;;;;;;4996236;28;20050;-77
2021/01/07 07:32:53;;;;;;;13.75;7.18;;;1.20;82.00;;;;;;4995655;28;20023;-76
2021/01/07 07:35:23;;;;;;;15.25;6.93;;;1.20;82.00;;;;;;4995913;28;20081;-77
2021/01/07 07:37:50;;;;;;;12.18;7.13;;;1.10;82.00;;;;;;4978188;28;20023;-76
2021/01/07 07:40:33;;;;;;;14.32;7.13;;;1.20;81.80;;;;;;4995951;28;20152;-75
2021/01/07 07:43:00;;;;;;;14.25;8.60;;;1.20;81.70;;;;;;4995816;28;20073;-76
2021/01/07 07:45:31;;;;;;;12.80;7.35;;;1.20;81.40;;;;;;4995878;28;20479;-76
2021/01/07 07:47:57;;;;;;;14.07;7.82;;;1.10;81.30;;;;;;4995627;28;20475;-75
2021/01/07 07:50:27;;;;;;;17.58;8.60;;;1.20;81.60;;;;;;4995820;28;20072;-76
2021/01/07 07:53:13;;;;;;;19.70;9.63;;;1.20;81.60;;;;;;4995638;28;20069;-75
2021/01/07 07:55:40;;;;;;;16.60;8.55;;;1.20;81.60;;;;;;4978131;28;20032;-76
2021/01/07 07:58:15;;;;;;;15.98;9.02;;;1.30;81.70;;;;;;4998032;28;20027;-77
2021/01/07 08:00:52;;;;;;;12.27;8.18;;;1.30;81.70;;;;;;4996654;28;20045;-77
2021/01/07 08:03:28;;;;;;;22.60;10.73;;;1.40;81.70;;;;;;4999370;28;20052;-76
2021/01/07 08:05:55;;;;;;;21.42;9.68;;;1.40;81.50;;;;;;4996556;28;20022;-75
2021/01/07 08:08:31;;;;;;;19.40;10.02;;;1.40;81.40;;;;;;4995487;28;20419;-74
2021/01/07 08:10:59;;;;;;;20.77;9.15;;;1.40;81.20;;;;;;4995287;28;20030;-75
2021/01/07 08:13:26;;;;;;;16.85;8.43;;;1.40;81.10;;;;;;4995451;28;20126;-80
2021/01/07 08:15:54;;;;;;;14.65;8.68;;;1.50;81.20;;;;;;4994891;28;20053;-75
2021/01/07 08:18:21;;;;;;;18.25;9.55;;;1.50;81.50;;;;;;4994943;28;20034;-77
2021/01/07 08:20:49;;;;;;;32.30;9.93;;;1.50;81.60;;;;;;4994874;28;20028;-74
2021/01/07 08:23:16;;;;;;;22.10;10.00;;;2.20;91.10;;;;;;4994780;28;20427;-75
2021/01/07 08:25:45;;;;;;;14.68;8.40;;;2.90;96.60;;;;;;4994888;28;20026;-74
2021/01/07 08:28:25;;;;;;;14.75;7.35;;;3.20;90.70;;;;;;4994387;28;20022;-74
2021/01/07 08:30:52;;;;;;;11.48;6.25;;;4.10;85.60;;;;;;4994892;28;20057;-73
2021/01/07 08:33:20;;;;;;;9.63;6.28;;;5.20;78.00;;;;;;4994538;28;20030;-73
2021/01/07 08:35:46;;;;;;;12.35;6.55;;;5.40;72.30;;;;;;4994758;28;20375;-73
2021/01/07 08:38:31;;;;;;;13.57;7.03;;;5.40;70.20;;;;;;4994705;28;20037;-73
2021/01/07 08:41:16;;;;;;;11.23;6.70;;;5.10;68.40;;;;;;4994640;28;20033;-73
2021/01/07 08:43:44;;;;;;;10.60;6.40;;;5.00;69.00;;;;;;4993122;28;20487;-73
2021/01/07 08:46:11;;;;;;;9.88;6.43;;;5.00;68.60;;;;;;4994448;28;20529;-73
2021/01/07 08:48:36;;;;;;;8.05;5.95;;;4.60;67.30;;;;;;4994330;28;20029;-73
2021/01/07 08:51:15;;;;;;;6.03;4.70;;;4.40;68.80;;;;;;4994391;28;20026;-73
2021/01/07 08:53:55;;;;;;;8.57;5.07;;;4.70;69.70;;;;;;4994322;28;20068;-73
2021/01/07 08:56:41;;;;;;;10.98;7.22;;;4.60;69.30;;;;;;4994351;28;20442;-82
2021/01/07 08:59:32;;;;;;;14.15;7.50;;;4.30;68.30;;;;;;4999222;28;20095;-88
2021/01/07 09:02:01;;;;;;;13.10;7.88;;;3.90;68.80;;;;;;4997889;28;20022;-83
2021/01/07 09:04:32;;;;;;;13.07;8.32;;;3.70;69.60;;;;;;4981580;28;20121;-88
2021/01/07 09:07:08;;;;;;;15.27;8.85;;;3.50;70.70;;;;;;4997695;28;20030;-88
2021/01/07 09:09:45;;;;;;;12.10;7.45;;;3.40;71.30;;;;;;4999335;28;20027;-90
2021/01/07 09:12:24;;;;;;;15.05;9.40;;;3.20;71.80;;;;;;4999665;28;20475;-92
2021/01/07 09:15:05;;;;;;;16.65;9.18;;;3.20;72.30;;;;;;4999115;28;20179;-90
2021/01/07 09:17:47;;;;;;;15.95;9.00;;;3.10;72.80;;;;;;4993521;28;20379;-91
2021/01/07 09:20:15;;;;;;;15.32;8.75;;;3.10;73.20;;;;;;4980614;28;20034;-91
2021/01/07 09:22:42;;;;;;;16.02;9.05;;;3.20;73.50;;;;;;4999700;28;20042;-91
2021/01/07 09:25:09;;;;;;;16.92;9.18;;;3.30;73.70;;;;;;4983727;28;20117;-90
2021/01/07 09:27:35;;;;;;;17.50;9.10;;;3.30;73.70;;;;;;4999925;28;20015;-91
2021/01/07 09:30:00;;;;;;;14.55;8.68;;;3.40;73.60;;;;;;4999627;28;20031;-89
2021/01/07 09:32:26;;;;;;;15.48;8.50;;;3.40;73.60;;;;;;4997913;28;20073;-88
2021/01/07 09:34:52;;;;;;;19.05;10.02;;;3.40;73.60;;;;;;4998004;28;20030;-91
2021/01/07 09:37:22;;;;;;;15.05;9.30;;;3.50;73.80;;;;;;4980879;28;20026;-90
2021/01/07 09:39:50;;;;;;;18.17;10.20;;;3.40;73.50;;;;;;4980587;28;20033;-91
2021/01/07 09:42:20;;;;;;;14.60;9.13;;;3.40;73.20;;;;;;4999190;28;20030;-89
2021/01/07 09:44:48;;;;;;;15.05;9.57;;;3.40;73.10;;;;;;4999424;28;20026;-92
2021/01/07 09:47:13;;;;;;;18.90;10.13;;;3.30;73.00;;;;;;4996836;28;20026;-90
2021/01/07 09:49:39;;;;;;;17.45;10.43;;;3.30;73.40;;;;;;4999527;28;20041;-88
2021/01/07 09:52:05;;;;;;;18.67;10.82;;;3.20;73.90;;;;;;4996386;28;20054;-87
2021/01/07 09:54:31;;;;;;;17.17;10.27;;;3.00;74.30;;;;;;4993794;28;20487;-84
2021/01/07 09:56:58;;;;;;;15.60;10.27;;;2.90;75.00;;;;;;4977692;28;20042;-83
2021/01/07 09:59:26;;;;;;;26.27;10.98;;;2.90;75.10;;;;;;4994471;28;20034;-81
2021/01/07 10:01:53;;;;;;;14.30;9.02;;;3.00;75.20;;;;;;4977542;28;20057;-81
2021/01/07 10:04:18;;;;;;;17.60;9.52;;;3.20;74.90;;;;;;4991016;28;20030;-80
2021/01/07 10:06:44;;;;;;;18.40;9.85;;;3.60;74.50;;;;;;4975654;28;20082;-80
2021/01/07 10:09:10;;;;;;;24.27;12.20;;;4.00;73.60;;;;;;4973424;28;20086;-82
2021/01/07 10:11:35;;;;;;;15.52;10.27;;;4.10;71.70;;;;;;4973478;28;20395;-83
2021/01/07 10:14:01;;;;;;;20.02;10.27;;;3.70;70.10;;;;;;4973575;28;20027;-84
2021/01/07 10:16:27;;;;;;;19.90;10.45;;;3.40;70.50;;;;;;4956003;28;20030;-83
2021/01/07 10:18:53;;;;;;;18.45;10.77;;;3.50;70.70;;;;;;4973420;28;20038;-84
2021/01/07 10:21:22;;;;;;;19.08;10.48;;;3.50;71.00;;;;;;4973100;28;20479;-83
2021/01/07 10:23:48;;;;;;;17.52;9.27;;;3.60;70.70;;;;;;4954118;29;20039;-84
2021/01/07 10:26:17;;;;;;;13.45;8.10;;;3.70;70.50;;;;;;4937125;29;20035;-85
2021/01/07 10:28:45;;;;;;;13.60;8.98;;;3.80;70.30;;;;;;4937808;29;20031;-88
2021/01/07 10:31:15;;;;;;;21.38;11.85;;;4.00;70.10;;;;;;4955248;29;20043;-84
2021/01/07 10:33:43;;;;;;;21.92;12.23;;;4.10;69.50;;;;;;4937562;29;20085;-85
2021/01/07 10:36:09;;;;;;;19.77;10.75;;;4.20;69.40;;;;;;4954529;29;20078;-77
2021/01/07 10:38:37;;;;;;;16.70;9.73;;;4.20;69.40;;;;;;4955743;29;20039;-91
2021/01/07 10:41:06;;;;;;;15.68;9.02;;;4.30;69.20;;;;;;4956265;29;20027;-91
2021/01/07 10:43:33;;;;;;;12.35;8.38;;;4.50;68.80;;;;;;4955911;29;20035;-90
2021/01/07 10:45:59;;;;;;;13.93;8.73;;;4.70;67.90;;;;;;4939868;29;20027;-91
2021/01/07 10:48:25;;;;;;;13.85;7.82;;;4.90;67.00;;;;;;4956194;29;20031;-82
2021/01/07 10:50:51;;;;;;;15.77;9.88;;;5.10;66.40;;;;;;4972408;28;20023;-77
2021/01/07 10:53:46;;;;;;;17.27;10.00;;;5.30;65.30;;;;;;4976861;28;20070;-83
2021/01/07 10:56:25;;;;;;;12.10;7.75;;;5.40;64.40;;;;;;4976769;28;20061;-80
2021/01/07 10:59:27;;;;;;;14.38;8.95;;;5.40;63.90;;;;;;4976361;28;20029;-77
2021/01/07 11:02:20;;;;;;;15.43;9.07;;;5.20;63.10;;;;;;4958980;28;20015;-77
2021/01/07 11:05:09;;;;;;;14.90;8.82;;;5.20;63.50;;;;;;4976467;28;20043;-76
2021/01/07 11:07:52;;;;;;;14.75;8.32;;;5.30;63.90;;;;;;4976419;28;20042;-76
2021/01/07 11:10:19;;;;;;;13.07;8.63;;;5.20;63.10;;;;;;4976430;28;20054;-75
2021/01/07 11:13:07;;;;;;;12.70;8.18;;;5.20;62.80;;;;;;4976275;28;20539;-81
2021/01/07 11:15:35;;;;;;;12.38;7.80;;;5.20;63.30;;;;;;4958633;28;20499;-77
2021/01/07 11:18:07;;;;;;;12.38;7.90;;;5.20;63.20;;;;;;4976167;28;20082;-81
2021/01/07 11:20:36;;;;;;;14.82;9.68;;;5.20;63.20;;;;;;4975661;28;20030;-80
2021/01/07 11:23:05;;;;;;;14.63;8.75;;;4.80;63.10;;;;;;4971458;28;20047;-77
2021/01/07 11:25:31;;;;;;;12.15;8.10;;;4.70;64.10;;;;;;4995223;28;20089;-77
2021/01/07 11:28:00;;;;;;;11.27;7.20;;;4.70;64.30;;;;;;4995103;28;20030;-80
2021/01/07 11:30:26;;;;;;;13.25;7.57;;;4.70;64.30;;;;;;4995396;28;20077;-81
2021/01/07 11:32:53;;;;;;;15.23;8.40;;;4.70;64.10;;;;;;4977710;28;20030;-80
2021/01/07 11:35:19;;;;;;;14.18;7.97;;;4.70;64.30;;;;;;4995275;28;20018;-81
2021/01/07 11:37:58;;;;;;;13.00;7.90;;;4.40;64.30;;;;;;4995131;28;20492;-79
2021/01/07 11:40:25;;;;;;;11.63;7.85;;;4.50;65.00;;;;;;4995271;28;20033;-78
2021/01/07 11:42:58;;;;;;;12.63;7.38;;;4.50;65.20;;;;;;4994947;28;20109;-79
2021/01/07 11:45:34;;;;;;;12.40;6.88;;;4.50;65.10;;;;;;4995207;28;20026;-78
2021/01/07 11:48:05;;;;;;;15.68;7.63;;;4.60;65.80;;;;;;4995122;28;20545;-80
2021/01/07 11:50:36;;;;;;;15.35;8.52;;;4.50;65.20;;;;;;4994818;28;20026;-76
2021/01/07 11:53:04;;;;;;;16.85;8.93;;;4.30;65.80;;;;;;4994988;28;20453;-77
2021/01/07 11:55:30;;;;;;;13.25;8.45;;;4.10;66.40;;;;;;4995129;28;20120;-76
2021/01/07 11:57:57;;;;;;;15.90;9.43;;;3.90;68.00;;;;;;4994650;28;20088;-80
2021/01/07 12:00:23;;;;;;;13.25;8.25;;;3.90;68.70;;;;;;4994897;28;20036;-79
2021/01/07 12:02:50;;;;;;;15.98;8.27;;;4.00;68.70;;;;;;4993768;28;20034;-80
2021/01/07 12:05:18;;;;;;;13.88;8.68;;;4.00;68.40;;;;;;4994647;28;20118;-79
2021/01/07 12:08:02;;;;;;;13.88;8.13;;;4.00;68.10;;;;;;4976976;28;20425;-79
2021/01/07 12:10:34;;;;;;;18.40;9.80;;;4.00;68.10;;;;;;4986600;28;20431;-80
2021/01/07 12:13:17;;;;;;;19.42;10.18;;;4.00;67.90;;;;;;4994444;28;20500;-78
2021/01/07 12:15:44;;;;;;;15.45;9.25;;;4.00;68.00;;;;;;4994448;28;20061;-76
2021/01/07 12:18:11;;;;;;;14.02;9.32;;;4.00;68.00;;;;;;4994451;28;20467;-79
2021/01/07 12:20:37;;;;;;;13.15;8.40;;;4.00;68.20;;;;;;4994483;28;20038;-78
2021/01/07 12:23:09;;;;;;;12.18;7.40;;;4.00;68.40;;;;;;4994160;28;20050;-77
2021/01/07 12:25:38;;;;;;;14.23;8.88;;;4.20;68.20;;;;;;4987039;28;20398;-80
2021/01/07 12:28:05;;;;;;;12.93;7.65;;;4.20;67.40;;;;;;4976594;28;20563;-77
2021/01/07 12:30:39;;;;;;;11.25;8.00;;;4.30;67.30;;;;;;4994468;28;20487;-78
2021/01/07 12:33:22;;;;;;;13.80;8.57;;;4.50;67.10;;;;;;4994743;28;20030;-78
2021/01/07 12:36:03;;;;;;;12.55;8.18;;;4.60;66.50;;;;;;4994238;28;20023;-76
2021/01/07 12:38:36;;;;;;;12.48;8.38;;;4.70;65.90;;;;;;4995188;28;20022;-77
2021/01/07 12:41:09;;;;;;;13.88;8.60;;;4.60;65.60;;;;;;4997247;28;20046;-78
2021/01/07 12:43:41;;;;;;;13.25;8.27;;;4.40;66.60;;;;;;4995613;28;20093;-77
2021/01/07 12:46:10;;;;;;;13.52;8.10;;;4.40;66.30;;;;;;4994856;28;20030;-77
2021/01/07 12:48:37;;;;;;;12.27;7.03;;;4.50;66.20;;;;;;4997079;28;20022;-77
2021/01/07 12:51:03;;;;;;;10.13;6.68;;;4.40;65.50;;;;;;4999239;28;20079;-76
2021/01/07 12:53:29;;;;;;;11.30;6.55;;;4.40;65.50;;;;;;4998296;28;20034;-77
2021/01/07 12:55:56;;;;;;;8.35;6.03;;;4.30;65.40;;;;;;4997592;28;20420;-78